createdAt,value
2019-04-10T00:00:53.063Z,86.60
2019-04-10T00:05:52.133Z,86.70
2019-04-10T00:08:21.623Z,86.60
2019-04-10T00:10:50.397Z,86.60
2019-04-10T00:15:46.969Z,86.70
2019-04-10T00:18:15.912Z,86.70
2019-04-10T00:25:41.886Z,86.50
2019-04-10T00:28:11.480Z,86.50
2019-04-10T00:33:10.231Z,86.60
2019-04-10T00:35:39.416Z,86.50
2019-04-10T00:38:07.908Z,86.60
2019-04-10T00:40:36.390Z,86.60
2019-04-10T00:43:04.796Z,86.30
2019-04-10T00:45:33.468Z,86.30
2019-04-10T00:50:30.733Z,86.50
2019-04-10T00:57:58.089Z,86.50
2019-04-10T01:00:26.725Z,86.30
2019-04-10T01:02:55.133Z,86.60
2019-04-10T01:05:23.543Z,86.60
2019-04-10T01:07:52.039Z,86.60
2019-04-10T01:10:21.966Z,86.50
2019-04-10T01:12:50.582Z,86.30
2019-04-10T01:15:19.060Z,86.30
2019-04-10T01:22:44.100Z,86.70
2019-04-10T01:25:12.585Z,86.60
2019-04-10T01:27:41.153Z,86.80
2019-04-10T01:30:10.512Z,86.80
2019-04-10T01:32:39.782Z,87.30
2019-04-10T01:35:08.460Z,87.30
2019-04-10T01:37:48.596Z,87.20
2019-04-10T01:42:35.440Z,87.00
2019-04-10T01:50:02.297Z,87.00
2019-04-10T01:54:59.861Z,87.20
2019-04-10T01:57:28.452Z,87.10
2019-04-10T01:59:56.900Z,87.20
2019-04-10T02:02:27.382Z,87.10
2019-04-10T02:04:56.798Z,87.30
2019-04-10T02:07:26.397Z,87.40
2019-04-10T02:09:56.039Z,87.30
2019-04-10T02:12:24.622Z,87.40
2019-04-10T02:19:50.087Z,87.10
2019-04-10T02:22:18.771Z,86.90
2019-04-10T02:24:47.292Z,87.10
2019-04-10T02:27:16.231Z,87.00
2019-04-10T02:32:14.439Z,86.90
2019-04-10T02:34:43.858Z,87.00
2019-04-10T02:39:47.010Z,87.10
2019-04-10T02:42:11.816Z,87.10
2019-04-10T02:44:41.668Z,87.00
2019-04-10T02:47:10.452Z,87.30
2019-04-10T02:49:40.222Z,87.30
2019-04-10T02:52:10.812Z,87.20
2019-04-10T02:54:39.724Z,87.30
2019-04-10T02:57:09.463Z,87.40
2019-04-10T02:59:39.643Z,87.50
2019-04-10T03:02:08.727Z,87.50
2019-04-10T03:07:07.393Z,87.70
2019-04-10T03:09:49.492Z,87.80
2019-04-10T03:12:06.379Z,87.60
2019-04-10T03:14:36.788Z,87.60
2019-04-10T03:17:06.009Z,87.50
2019-04-10T03:22:03.797Z,87.50
2019-04-10T03:24:32.424Z,87.60
2019-04-10T03:27:01.759Z,87.30
2019-04-10T03:29:31.563Z,87.30
2019-04-10T03:32:02.188Z,87.40
2019-04-10T03:37:01.759Z,87.40
2019-04-10T03:39:33.433Z,87.30
2019-04-10T03:42:01.349Z,87.20
2019-04-10T03:44:30.446Z,87.10
2019-04-10T03:46:58.957Z,87.30
2019-04-10T03:49:27.642Z,87.30
2019-04-10T03:51:56.706Z,87.30
2019-04-10T03:54:25.220Z,87.30
2019-04-10T03:56:54.147Z,87.30
2019-04-10T03:59:22.707Z,87.20
2019-04-10T04:01:51.391Z,87.30
2019-04-10T04:04:19.891Z,87.30
2019-04-10T04:09:17.627Z,87.20
2019-04-10T04:14:14.695Z,87.30
2019-04-10T04:16:43.602Z,87.50
2019-04-10T04:19:12.284Z,87.40
2019-04-10T04:21:41.738Z,87.40
2019-04-10T04:24:11.346Z,87.50
2019-04-10T04:29:07.965Z,87.50
2019-04-10T04:34:04.710Z,87.50
2019-04-10T04:36:33.127Z,87.50
2019-04-10T04:41:31.651Z,87.60
2019-04-10T04:44:00.332Z,87.70
2019-04-10T04:46:28.727Z,87.80
2019-04-10T04:48:57.741Z,88.00
2019-04-10T04:51:27.275Z,87.80
2019-04-10T04:53:56.861Z,87.80
2019-04-10T04:56:26.140Z,88.00
2019-04-10T04:58:54.613Z,87.80
2019-04-10T05:01:23.114Z,87.70
2019-04-10T05:06:20.135Z,87.60
2019-04-10T05:08:48.643Z,87.50
2019-04-10T05:11:18.231Z,87.40
2019-04-10T05:16:16.301Z,87.50
2019-04-10T05:21:14.247Z,87.40
2019-04-10T05:23:42.880Z,87.30
2019-04-10T05:33:37.194Z,87.30
2019-04-10T05:36:06.631Z,87.40
2019-04-10T05:38:35.524Z,87.50
2019-04-10T05:41:04.769Z,87.50
2019-04-10T05:43:34.158Z,87.40
2019-04-10T05:46:02.907Z,87.30
2019-04-10T05:48:31.620Z,87.20
2019-04-10T05:51:04.312Z,87.20
2019-04-10T05:53:30.408Z,87.20
2019-04-10T05:55:58.812Z,87.30
2019-04-10T05:58:27.253Z,87.40
2019-04-10T06:00:57.297Z,87.40
2019-04-10T06:05:54.262Z,87.10
2019-04-10T06:08:23.738Z,87.10
2019-04-10T06:10:52.352Z,87.20
2019-04-10T06:13:20.768Z,87.20
2019-04-10T06:15:49.171Z,87.10
2019-04-10T06:18:18.633Z,87.20
2019-04-10T06:20:47.394Z,87.30
2019-04-10T06:23:16.969Z,87.10
2019-04-10T06:28:14.931Z,86.30
2019-04-10T06:30:43.886Z,86.20
2019-04-10T06:33:12.337Z,85.60
2019-04-10T06:35:40.780Z,85.60
2019-04-10T06:38:09.184Z,85.80
2019-04-10T06:40:37.696Z,85.70
2019-04-10T06:43:06.602Z,85.60
2019-04-10T06:45:35.787Z,85.20
2019-04-10T06:48:04.307Z,84.60
2019-04-10T06:53:00.839Z,84.30
2019-04-10T06:55:30.173Z,84.40
2019-04-10T06:57:59.366Z,84.40
2019-04-10T07:00:28.634Z,84.60
2019-04-10T07:02:57.217Z,84.90
2019-04-10T07:05:36.983Z,84.80
2019-04-10T07:08:05.785Z,84.50
2019-04-10T07:12:55.913Z,84.30
2019-04-10T07:15:25.588Z,84.50
2019-04-10T07:17:55.362Z,84.50
2019-04-10T07:20:24.135Z,84.60
2019-04-10T07:22:53.356Z,84.20
2019-04-10T07:27:50.355Z,84.00
2019-04-10T07:30:19.557Z,83.70
2019-04-10T07:32:49.199Z,83.20
2019-04-10T07:35:21.451Z,83.50
2019-04-10T07:37:51.621Z,83.30
2019-04-10T07:40:18.635Z,83.10
2019-04-10T07:42:48.156Z,83.20
2019-04-10T07:45:17.497Z,83.40
2019-04-10T07:47:46.260Z,82.40
2019-04-10T07:50:16.399Z,82.50
2019-04-10T07:52:45.916Z,82.70
2019-04-10T07:55:14.906Z,82.90
2019-04-10T07:57:46.005Z,82.00
2019-04-10T08:00:16.044Z,81.40
2019-04-10T08:02:44.827Z,81.80
2019-04-10T08:05:13.793Z,80.60
2019-04-10T08:07:43.089Z,80.60
2019-04-10T08:10:12.318Z,81.20
2019-04-10T08:12:47.637Z,81.50
2019-04-10T08:17:40.811Z,81.80
2019-04-10T08:20:10.624Z,81.10
2019-04-10T08:22:39.389Z,81.40
2019-04-10T08:25:08.984Z,81.50
2019-04-10T08:27:38.399Z,81.90
2019-04-10T08:35:08.964Z,82.10
2019-04-10T08:37:38.807Z,81.90
2019-04-10T08:40:09.639Z,82.40
2019-04-10T08:45:07.133Z,83.20
2019-04-10T08:47:35.766Z,83.50
2019-04-10T08:50:07.621Z,83.70
2019-04-10T08:52:37.029Z,84.00
2019-04-10T08:55:06.522Z,84.50
2019-04-10T08:57:36.118Z,84.80
2019-04-10T09:00:08.117Z,84.50
2019-04-10T09:02:38.003Z,84.40
2019-04-10T09:05:09.197Z,84.80
2019-04-10T09:07:38.245Z,85.40
2019-04-10T09:12:35.417Z,85.30
2019-04-10T09:15:05.553Z,84.80
2019-04-10T09:17:34.193Z,85.10
2019-04-10T09:20:06.631Z,85.50
2019-04-10T09:22:55.178Z,85.50
2019-04-10T09:25:06.940Z,85.20
2019-04-10T09:27:35.958Z,85.20
2019-04-10T09:32:35.385Z,85.20
2019-04-10T09:35:04.730Z,85.20
2019-04-10T09:40:01.349Z,85.30
2019-04-10T09:42:29.817Z,85.50
2019-04-10T09:44:58.229Z,85.10
2019-04-10T09:47:26.986Z,85.50
2019-04-10T09:49:55.612Z,85.60
2019-04-10T09:52:24.193Z,85.30
2019-04-10T09:54:53.159Z,85.20
2019-04-10T10:05:06.601Z,83.40
2019-04-10T10:10:04.385Z,83.50
2019-04-10T10:12:32.808Z,83.80
2019-04-10T10:15:02.421Z,83.90
2019-04-10T10:17:31.024Z,83.40
2019-04-10T10:22:29.365Z,82.70
2019-04-10T10:24:59.294Z,82.90
2019-04-10T10:27:27.996Z,82.80
2019-04-10T10:29:56.404Z,82.60
2019-04-10T10:32:24.823Z,82.90
2019-04-10T10:34:53.244Z,83.40
2019-04-10T10:39:50.819Z,83.30
2019-04-10T10:44:48.125Z,82.90
2019-04-10T10:47:16.834Z,83.10
2019-04-10T10:52:13.453Z,83.20
2019-04-10T10:54:41.874Z,83.10
2019-04-10T10:57:11.031Z,82.80
2019-04-10T10:59:39.850Z,83.40
2019-04-10T11:02:08.608Z,83.30
2019-04-10T11:04:37.863Z,83.20
2019-04-10T11:07:06.994Z,83.40
2019-04-10T11:12:06.709Z,83.80
2019-04-10T11:14:35.521Z,83.80
2019-04-10T11:29:24.857Z,84.40
2019-04-10T11:31:53.743Z,84.90
2019-04-10T11:34:22.659Z,84.90
2019-04-10T11:37:14.239Z,84.70
2019-04-10T11:39:25.550Z,84.40
2019-04-10T11:41:52.727Z,84.40
2019-04-10T11:44:21.631Z,84.20
2019-04-10T11:46:52.658Z,84.20
2019-04-10T11:51:52.945Z,83.70
2019-04-10T11:54:24.710Z,83.80
2019-04-10T11:56:52.863Z,83.70
2019-04-10T12:01:53.070Z,83.90
2019-04-10T12:04:20.829Z,84.30
2019-04-10T12:09:56.924Z,84.30
2019-04-10T12:11:49.379Z,84.20
2019-04-10T12:14:17.793Z,84.10
2019-04-10T12:16:47.331Z,84.50
2019-04-10T12:21:44.246Z,85.50
2019-04-10T12:24:12.867Z,85.60
2019-04-10T12:30:13.836Z,86.10
2019-04-10T12:31:41.936Z,86.10
2019-04-10T12:34:10.784Z,86.60
2019-04-10T12:36:39.545Z,86.70
2019-04-10T12:39:09.640Z,86.00
2019-04-10T12:41:38.094Z,85.40
2019-04-10T12:46:36.005Z,84.90
2019-04-10T12:51:34.921Z,82.00
2019-04-10T12:56:33.223Z,81.20
2019-04-10T13:03:58.005Z,80.90
2019-04-10T13:09:04.909Z,80.60
2019-04-10T13:11:24.809Z,81.50
2019-04-10T13:13:54.573Z,81.20
2019-04-10T13:16:23.836Z,81.70
2019-04-10T13:18:52.395Z,83.20
2019-04-10T13:21:20.790Z,82.60
2019-04-10T13:23:49.271Z,82.90
2019-04-10T13:28:46.278Z,83.20
2019-04-10T13:31:14.688Z,83.30
2019-04-10T13:36:11.368Z,83.70
2019-04-10T13:38:40.166Z,83.50
2019-04-10T13:41:08.656Z,83.40
2019-04-10T13:43:38.035Z,82.50
2019-04-10T13:46:06.848Z,82.70
2019-04-10T13:48:35.596Z,83.30
2019-04-10T13:53:32.261Z,84.00
2019-04-10T13:56:01.021Z,83.30
2019-04-10T13:58:29.588Z,82.70
2019-04-10T14:00:58.760Z,82.50
2019-04-10T14:05:57.076Z,82.90
2019-04-10T14:08:40.527Z,83.20
2019-04-10T14:10:57.243Z,83.30
2019-04-10T14:13:26.100Z,83.30
2019-04-10T14:15:55.979Z,83.10
2019-04-10T14:18:24.544Z,83.90
2019-04-10T14:20:53.430Z,83.90
2019-04-10T14:25:56.148Z,84.60
2019-04-10T14:28:27.091Z,84.80
2019-04-10T14:30:57.823Z,84.90
2019-04-10T14:33:26.340Z,84.80
2019-04-10T14:38:23.254Z,84.50
2019-04-10T14:40:51.767Z,83.90
2019-04-10T14:43:20.906Z,84.20
2019-04-10T14:48:20.230Z,83.30
2019-04-10T14:50:49.179Z,83.40
2019-04-10T14:53:17.808Z,83.20
2019-04-10T14:55:46.227Z,83.40
2019-04-10T14:58:22.811Z,83.40
2019-04-10T15:00:46.787Z,84.10
2019-04-10T15:03:16.163Z,83.10
2019-04-10T15:05:49.801Z,83.10
2019-04-10T15:08:15.549Z,83.00
2019-04-10T15:13:16.284Z,83.10
2019-04-10T15:15:42.809Z,83.70
2019-04-10T15:18:11.376Z,83.50
2019-04-10T15:20:39.861Z,83.70
2019-04-10T15:25:39.539Z,84.10
2019-04-10T15:28:08.506Z,84.20
2019-04-10T15:30:37.113Z,84.40
2019-04-10T15:33:06.593Z,84.40
2019-04-10T15:35:35.191Z,84.80
2019-04-10T15:38:04.091Z,84.60
2019-04-10T15:40:32.564Z,84.80
2019-04-10T15:43:00.979Z,84.80
2019-04-10T15:45:30.238Z,84.90
2019-04-10T15:50:28.929Z,84.90
2019-04-10T15:55:26.544Z,85.20
2019-04-10T15:57:57.871Z,85.40
2019-04-10T16:00:25.361Z,85.40
2019-04-10T16:02:55.277Z,85.40
2019-04-10T16:05:24.000Z,85.10
2019-04-10T16:07:53.106Z,85.10
2019-04-10T16:10:32.920Z,85.10
2019-04-10T16:13:19.874Z,84.90
2019-04-10T16:15:48.544Z,85.30
2019-04-10T16:20:51.326Z,85.60
2019-04-10T16:23:24.153Z,85.80
2019-04-10T16:25:54.487Z,86.00
2019-04-10T16:30:51.856Z,86.10
2019-04-10T16:33:20.277Z,85.90
2019-04-10T16:35:48.673Z,86.00
2019-04-10T16:38:17.076Z,86.00
2019-04-10T16:40:45.984Z,86.00
2019-04-10T16:43:15.882Z,86.30
2019-04-10T16:48:12.820Z,86.80
2019-04-10T16:53:09.756Z,87.00
2019-04-10T16:55:38.426Z,87.10
2019-04-10T16:58:07.591Z,87.20
2019-04-10T17:03:05.558Z,87.40
2019-04-10T17:05:35.206Z,87.60
2019-04-10T17:10:32.456Z,87.80
2019-04-10T17:13:02.363Z,88.10
2019-04-10T17:15:30.880Z,88.20
2019-04-10T17:17:59.284Z,88.20
2019-04-10T17:20:28.768Z,88.10
2019-04-10T17:22:58.394Z,88.00
2019-04-10T17:25:28.348Z,88.00
2019-04-10T17:30:25.464Z,88.00
2019-04-10T17:35:23.465Z,88.10
2019-04-10T17:37:51.933Z,88.00
2019-04-10T17:40:30.126Z,88.10
2019-04-10T17:42:50.929Z,88.40
2019-04-10T17:45:20.512Z,88.50
2019-04-10T17:52:47.292Z,88.30
2019-04-10T17:55:15.984Z,88.20
2019-04-10T17:57:46.019Z,88.40
2019-04-10T18:00:22.839Z,88.50
2019-04-10T18:05:20.363Z,88.40
2019-04-10T18:07:49.208Z,88.80
2019-04-10T18:10:18.361Z,88.50
2019-04-10T18:12:48.040Z,88.70
2019-04-10T18:15:16.744Z,89.20
2019-04-10T18:17:45.385Z,89.80
2019-04-10T18:20:13.938Z,90.00
2019-04-10T18:22:42.835Z,89.90
2019-04-10T18:25:11.886Z,89.80
2019-04-10T18:27:40.756Z,89.80
2019-04-10T18:30:09.971Z,89.80
2019-04-10T18:32:38.512Z,89.90
2019-04-10T18:35:08.778Z,89.90
2019-04-10T18:40:07.319Z,89.70
2019-04-10T18:42:37.297Z,89.70
2019-04-10T18:45:09.561Z,89.90
2019-04-10T18:47:39.285Z,89.90
2019-04-10T18:50:08.122Z,90.00
2019-04-10T18:52:37.321Z,89.90
2019-04-10T18:55:06.339Z,89.60
2019-04-10T18:57:35.727Z,89.70
2019-04-10T19:00:08.883Z,89.20
2019-04-10T19:02:41.084Z,89.50
2019-04-10T19:05:14.321Z,90.00
2019-04-10T19:07:42.858Z,90.30
2019-04-10T19:10:12.785Z,90.60
2019-04-10T19:12:41.388Z,90.70
2019-04-10T19:15:10.757Z,90.80
2019-04-10T19:20:11.095Z,90.70
2019-04-10T19:22:40.165Z,90.90
2019-04-10T19:27:37.103Z,91.10
2019-04-10T19:30:09.381Z,91.00
2019-04-10T19:32:37.801Z,91.20
2019-04-10T19:35:07.745Z,91.30
2019-04-10T19:37:36.776Z,91.20
2019-04-10T19:40:09.061Z,91.50
2019-04-10T19:45:07.917Z,91.70
2019-04-10T19:47:36.771Z,91.80
2019-04-10T19:50:06.031Z,91.70
2019-04-10T19:52:34.448Z,91.60
2019-04-10T19:55:03.338Z,91.70
2019-04-10T20:00:00.079Z,91.70
2019-04-10T20:02:28.483Z,91.50
2019-04-10T20:04:57.026Z,91.80
2019-04-10T20:07:25.683Z,91.80
2019-04-10T20:09:54.951Z,91.90
2019-04-10T20:14:51.562Z,91.70
2019-04-10T20:17:19.969Z,91.80
2019-04-10T20:19:48.914Z,91.80
2019-04-10T20:22:17.492Z,91.60
2019-04-10T20:24:46.137Z,91.50
2019-04-10T20:29:45.216Z,91.60
2019-04-10T20:34:43.393Z,91.50
2019-04-10T20:39:41.765Z,91.30
2019-04-10T20:42:10.168Z,91.10
2019-04-10T20:44:38.752Z,91.00
2019-04-10T20:47:07.287Z,90.90
2019-04-10T20:49:36.435Z,90.80
2019-04-10T20:52:06.140Z,91.00
2019-04-10T20:54:35.046Z,91.00
2019-04-10T20:57:04.934Z,91.00
2019-04-10T20:59:34.885Z,91.10
2019-04-10T21:02:04.169Z,90.80
2019-04-10T21:04:33.763Z,90.80
2019-04-10T21:12:06.720Z,91.00
2019-04-10T21:14:31.779Z,90.80
2019-04-10T21:17:00.418Z,90.80
2019-04-10T21:19:29.090Z,90.50
2019-04-10T21:21:57.631Z,90.10
2019-04-10T21:24:27.346Z,90.10
2019-04-10T21:26:56.905Z,90.00
2019-04-10T21:29:44.214Z,90.10
2019-04-10T21:37:15.840Z,90.50
2019-04-10T21:39:45.582Z,90.80
2019-04-10T21:42:21.103Z,91.00
2019-04-10T21:44:44.976Z,91.10
2019-04-10T21:47:13.548Z,91.30
2019-04-10T21:49:42.123Z,91.20
2019-04-10T21:54:48.751Z,91.30
2019-04-10T21:59:38.939Z,91.10
2019-04-10T22:02:08.217Z,91.40
2019-04-10T22:07:12.586Z,91.60
2019-04-10T22:09:43.223Z,91.60
2019-04-10T22:12:24.007Z,91.20
2019-04-10T22:14:43.892Z,91.40
2019-04-10T22:17:12.932Z,91.40
2019-04-10T22:19:41.324Z,91.20
2019-04-10T22:22:11.245Z,91.00
2019-04-10T22:24:40.509Z,91.20
2019-04-10T22:27:09.332Z,91.00
2019-04-10T22:29:38.749Z,91.20
2019-04-10T22:32:08.562Z,91.10
2019-04-10T22:34:38.376Z,91.20
2019-04-10T22:42:05.357Z,91.30
2019-04-10T22:44:40.225Z,91.30
2019-04-10T22:47:05.089Z,91.40
2019-04-10T22:49:34.867Z,91.20
2019-04-10T22:52:04.611Z,91.20
2019-04-10T22:54:33.136Z,91.20
2019-04-10T22:57:02.613Z,91.50
2019-04-10T22:59:31.128Z,91.40
2019-04-10T23:02:06.440Z,91.60
2019-04-10T23:04:30.617Z,91.60
2019-04-10T23:11:58.030Z,92.00
2019-04-10T23:14:26.931Z,91.90
2019-04-10T23:16:56.495Z,91.80
2019-04-10T23:19:25.846Z,92.00
2019-04-10T23:21:54.631Z,91.90
2019-04-10T23:24:23.455Z,91.90
2019-04-10T23:26:52.014Z,91.90
2019-04-10T23:29:20.414Z,92.00
2019-04-10T23:31:49.789Z,91.70
2019-04-10T23:36:48.655Z,91.70
2019-04-10T23:39:17.297Z,91.80
2019-04-10T23:41:45.713Z,91.90
2019-04-10T23:44:14.124Z,91.70
2019-04-10T23:49:13.020Z,91.70
2019-04-10T23:51:41.694Z,91.50
2019-04-10T23:54:11.151Z,91.70
2019-04-10T23:56:39.935Z,91.90
2019-04-10T23:59:08.729Z,91.90
